createdAt,value
2018-11-11T00:00:43.867Z,26.19
2018-11-11T00:01:44.205Z,26.16
2018-11-11T00:02:43.791Z,26.16
2018-11-11T00:03:43.875Z,26.12
2018-11-11T00:04:43.709Z,26.16
2018-11-11T00:05:43.307Z,26.17
2018-11-11T00:06:43.638Z,26.23
2018-11-11T00:07:43.892Z,26.15
2018-11-11T00:08:43.285Z,26.19
2018-11-11T00:09:43.202Z,26.17
2018-11-11T00:10:43.188Z,26.23
2018-11-11T00:11:43.160Z,26.30
2018-11-11T00:12:43.134Z,26.20
2018-11-11T00:13:43.176Z,26.17
2018-11-11T00:14:43.098Z,26.19
2018-11-11T00:15:43.073Z,26.17
2018-11-11T00:16:43.038Z,26.22
2018-11-11T00:17:43.021Z,26.24
2018-11-11T00:18:43.159Z,26.20
2018-11-11T00:19:43.297Z,26.16
2018-11-11T00:20:42.946Z,26.17
2018-11-11T00:21:42.949Z,26.23
2018-11-11T00:22:42.893Z,26.12
2018-11-11T00:23:42.950Z,26.11
2018-11-11T00:24:42.793Z,26.07
2018-11-11T00:25:42.800Z,26.09
2018-11-11T00:26:42.782Z,26.06
2018-11-11T00:27:42.741Z,26.04
2018-11-11T00:28:42.810Z,26.03
2018-11-11T00:29:42.815Z,26.07
2018-11-11T00:30:42.703Z,26.11
2018-11-11T00:31:42.644Z,26.07
2018-11-11T00:32:42.843Z,25.99
2018-11-11T00:33:42.583Z,26.07
2018-11-11T00:34:42.673Z,25.99
2018-11-11T00:35:42.650Z,25.97
2018-11-11T00:36:42.534Z,26.03
2018-11-11T00:37:42.498Z,26.00
2018-11-11T00:38:42.473Z,26.04
2018-11-11T00:39:42.556Z,25.99
2018-11-11T00:40:42.413Z,26.03
2018-11-11T00:41:42.385Z,25.99
2018-11-11T00:42:42.359Z,25.93
2018-11-11T00:43:42.341Z,25.99
2018-11-11T00:44:42.344Z,25.93
2018-11-11T00:45:42.612Z,25.94
2018-11-11T00:46:42.276Z,25.89
2018-11-11T00:47:42.261Z,25.85
2018-11-11T00:48:42.188Z,25.81
2018-11-11T00:49:42.471Z,25.89
2018-11-11T00:50:42.218Z,25.91
2018-11-11T00:51:42.116Z,25.86
2018-11-11T00:52:42.107Z,25.89
2018-11-11T00:53:42.058Z,25.84
2018-11-11T00:54:42.045Z,25.82
2018-11-11T00:55:42.328Z,25.86
2018-11-11T00:56:41.998Z,25.76
2018-11-11T00:57:41.989Z,25.84
2018-11-11T00:58:42.016Z,25.85
2018-11-11T00:59:42.050Z,25.76
2018-11-11T01:00:41.933Z,25.84
2018-11-11T01:01:41.943Z,25.81
2018-11-11T01:02:42.771Z,25.86
2018-11-11T01:03:42.059Z,25.81
2018-11-11T01:04:42.384Z,25.84
2018-11-11T01:05:42.008Z,25.75
2018-11-11T01:06:42.491Z,25.70
2018-11-11T01:07:42.761Z,25.67
2018-11-11T01:08:41.888Z,25.70
2018-11-11T01:09:42.640Z,25.70
2018-11-11T01:10:41.908Z,25.76
2018-11-11T01:11:41.586Z,25.75
2018-11-11T01:12:41.764Z,25.71
2018-11-11T01:13:41.636Z,25.66
2018-11-11T01:14:41.697Z,25.56
2018-11-11T01:15:41.477Z,25.56
2018-11-11T01:16:41.870Z,25.54
2018-11-11T01:17:41.429Z,25.60
2018-11-11T01:18:42.068Z,25.56
2018-11-11T01:19:41.396Z,25.56
2018-11-11T01:20:41.443Z,25.59
2018-11-11T01:21:41.324Z,25.56
2018-11-11T01:22:41.475Z,25.45
2018-11-11T01:23:41.265Z,25.56
2018-11-11T01:24:41.376Z,25.62
2018-11-11T01:25:41.217Z,25.62
2018-11-11T01:26:41.241Z,25.57
2018-11-11T01:27:41.323Z,25.62
2018-11-11T01:28:41.117Z,25.59
2018-11-11T01:29:41.398Z,25.47
2018-11-11T01:30:41.130Z,25.51
2018-11-11T01:31:41.052Z,25.47
2018-11-11T01:32:41.070Z,25.48
2018-11-11T01:33:41.067Z,25.42
2018-11-11T01:34:41.035Z,25.57
2018-11-11T01:35:41.102Z,25.51
2018-11-11T01:36:40.930Z,25.48
2018-11-11T01:37:40.909Z,25.51
2018-11-11T01:38:41.030Z,25.45
2018-11-11T01:39:41.236Z,25.52
2018-11-11T01:40:42.418Z,25.51
2018-11-11T01:41:41.798Z,25.52
2018-11-11T01:42:40.792Z,25.54
2018-11-11T01:43:41.004Z,25.57
2018-11-11T01:44:41.296Z,25.51
2018-11-11T01:45:40.795Z,25.52
2018-11-11T01:46:40.852Z,25.45
2018-11-11T01:47:41.660Z,25.48
2018-11-11T01:48:41.164Z,25.45
2018-11-11T01:49:40.575Z,25.47
2018-11-11T01:50:40.583Z,25.45
2018-11-11T01:51:41.118Z,25.47
2018-11-11T01:52:40.878Z,25.44
2018-11-11T01:53:42.441Z,25.42
2018-11-11T01:54:41.077Z,25.49
2018-11-11T01:55:40.918Z,25.48
2018-11-11T01:56:40.878Z,25.45
2018-11-11T01:57:40.458Z,25.48
2018-11-11T01:58:40.594Z,25.48
2018-11-11T01:59:40.844Z,25.47
2018-11-11T02:00:40.704Z,25.47
2018-11-11T02:01:40.865Z,25.41
2018-11-11T02:02:40.465Z,25.47
2018-11-11T02:03:40.284Z,25.49
2018-11-11T02:04:40.585Z,25.49
2018-11-11T02:05:40.805Z,25.49
2018-11-11T02:06:40.267Z,25.47
2018-11-11T02:07:40.175Z,25.49
2018-11-11T02:08:40.110Z,25.52
2018-11-11T02:09:40.382Z,25.51
2018-11-11T02:10:40.460Z,25.59
2018-11-11T02:11:40.342Z,25.54
2018-11-11T02:12:40.145Z,25.57
2018-11-11T02:13:39.982Z,25.63
2018-11-11T02:14:39.915Z,25.57
2018-11-11T02:15:39.992Z,25.45
2018-11-11T02:16:39.883Z,25.51
2018-11-11T02:17:40.070Z,25.45
2018-11-11T02:18:40.069Z,25.47
2018-11-11T02:19:40.045Z,25.47
2018-11-11T02:20:40.000Z,25.47
2018-11-11T02:21:39.725Z,25.44
2018-11-11T02:22:39.685Z,25.39
2018-11-11T02:23:39.665Z,25.34
2018-11-11T02:24:40.205Z,25.44
2018-11-11T02:25:39.620Z,25.44
2018-11-11T02:26:39.712Z,25.38
2018-11-11T02:27:39.586Z,25.39
2018-11-11T02:28:39.632Z,25.33
2018-11-11T02:29:39.526Z,25.32
2018-11-11T02:30:39.532Z,25.37
2018-11-11T02:31:39.982Z,25.38
2018-11-11T02:32:39.576Z,25.33
2018-11-11T02:33:39.417Z,25.39
2018-11-11T02:34:39.367Z,25.33
2018-11-11T02:35:39.351Z,25.34
2018-11-11T02:36:39.425Z,25.39
2018-11-11T02:37:39.735Z,25.33
2018-11-11T02:38:39.311Z,25.37
2018-11-11T02:39:39.228Z,25.32
2018-11-11T02:40:39.195Z,25.26
2018-11-11T02:41:39.417Z,25.34
2018-11-11T02:42:39.196Z,25.29
2018-11-11T02:43:39.230Z,25.32
2018-11-11T02:44:39.094Z,25.33
2018-11-11T02:45:39.072Z,25.27
2018-11-11T02:46:39.063Z,25.32
2018-11-11T02:47:39.101Z,25.38
2018-11-11T02:48:39.017Z,25.38
2018-11-11T02:49:39.132Z,25.30
2018-11-11T02:50:38.978Z,25.32
2018-11-11T02:51:38.891Z,25.39
2018-11-11T02:52:39.292Z,25.33
2018-11-11T02:53:38.849Z,25.37
2018-11-11T02:54:38.939Z,25.38
2018-11-11T02:55:38.848Z,25.34
2018-11-11T02:56:38.823Z,25.34
2018-11-11T02:57:38.759Z,25.45
2018-11-11T02:58:38.883Z,25.32
2018-11-11T02:59:38.838Z,25.37
2018-11-11T03:00:38.651Z,25.39
2018-11-11T03:01:38.773Z,25.32
2018-11-11T03:02:39.221Z,25.32
2018-11-11T03:03:38.560Z,25.37
2018-11-11T03:04:38.848Z,25.33
2018-11-11T03:05:38.661Z,25.29
2018-11-11T03:06:38.741Z,25.29
2018-11-11T03:07:38.541Z,25.29
2018-11-11T03:08:38.430Z,25.30
2018-11-11T03:09:38.538Z,25.27
2018-11-11T03:10:38.426Z,25.39
2018-11-11T03:11:38.413Z,25.30
2018-11-11T03:12:38.364Z,25.32
2018-11-11T03:13:38.318Z,25.23
2018-11-11T03:14:38.265Z,25.29
2018-11-11T03:15:38.267Z,25.30
2018-11-11T03:16:38.283Z,25.30
2018-11-11T03:17:38.293Z,25.24
2018-11-11T03:18:38.176Z,25.30
2018-11-11T03:19:38.123Z,25.26
2018-11-11T03:20:38.125Z,25.20
2018-11-11T03:21:38.075Z,25.23
2018-11-11T03:22:38.139Z,25.27
2018-11-11T03:23:38.226Z,25.33
2018-11-11T03:24:38.024Z,25.29
2018-11-11T03:25:37.990Z,25.29
2018-11-11T03:26:38.419Z,25.34
2018-11-11T03:27:37.953Z,25.30
2018-11-11T03:28:38.185Z,25.32
2018-11-11T03:29:37.888Z,25.29
2018-11-11T03:30:37.848Z,25.30
2018-11-11T03:31:37.848Z,25.33
2018-11-11T03:32:37.804Z,25.26
2018-11-11T03:33:37.881Z,25.30
2018-11-11T03:34:37.738Z,25.20
2018-11-11T03:35:37.861Z,25.20
2018-11-11T03:36:37.730Z,25.15
2018-11-11T03:37:37.664Z,25.20
2018-11-11T03:38:37.719Z,25.26
2018-11-11T03:39:37.635Z,25.20
2018-11-11T03:40:37.567Z,25.32
2018-11-11T03:41:37.548Z,25.33
2018-11-11T03:42:37.522Z,25.32
2018-11-11T03:43:37.488Z,25.23
2018-11-11T03:44:37.510Z,25.29
2018-11-11T03:45:37.443Z,25.20
2018-11-11T03:46:37.426Z,25.11
2018-11-11T03:47:37.397Z,25.20
2018-11-11T03:48:37.369Z,25.14
2018-11-11T03:49:37.348Z,25.15
2018-11-11T03:50:37.423Z,25.23
2018-11-11T03:51:37.301Z,25.17
2018-11-11T03:52:37.761Z,25.12
2018-11-11T03:53:37.218Z,25.26
2018-11-11T03:54:37.182Z,25.20
2018-11-11T03:55:37.221Z,25.22
2018-11-11T03:56:37.173Z,25.17
2018-11-11T03:57:37.133Z,25.24
2018-11-11T03:58:37.149Z,25.24
2018-11-11T03:59:37.063Z,25.20
2018-11-11T04:00:37.052Z,25.17
2018-11-11T04:01:37.103Z,25.24
2018-11-11T04:02:36.980Z,25.20
2018-11-11T04:03:36.944Z,25.17
2018-11-11T04:04:36.931Z,25.12
2018-11-11T04:05:36.884Z,25.05
2018-11-11T04:06:36.965Z,25.11
2018-11-11T04:07:36.862Z,25.05
2018-11-11T04:08:36.832Z,25.07
2018-11-11T04:09:36.776Z,25.02
2018-11-11T04:10:36.834Z,25.00
2018-11-11T04:11:36.848Z,25.02
2018-11-11T04:12:36.706Z,25.02
2018-11-11T04:13:36.680Z,25.05
2018-11-11T04:14:36.639Z,25.00
2018-11-11T04:15:36.647Z,25.01
2018-11-11T04:16:36.712Z,25.01
2018-11-11T04:17:36.670Z,25.00
2018-11-11T04:18:36.558Z,25.01
2018-11-11T04:19:36.529Z,25.15
2018-11-11T04:20:36.646Z,25.08
2018-11-11T04:21:36.495Z,25.00
2018-11-11T04:22:36.563Z,25.01
2018-11-11T04:23:36.409Z,25.01
2018-11-11T04:24:36.373Z,25.08
2018-11-11T04:25:36.360Z,25.08
2018-11-11T04:26:36.439Z,25.07
2018-11-11T04:27:36.315Z,25.12
2018-11-11T04:28:36.371Z,25.09
2018-11-11T04:29:36.224Z,25.05
2018-11-11T04:30:36.241Z,25.02
2018-11-11T04:31:36.177Z,25.01
2018-11-11T04:32:36.161Z,25.09
2018-11-11T04:33:36.238Z,25.08
2018-11-11T04:34:36.138Z,25.12
2018-11-11T04:35:36.091Z,25.08
2018-11-11T04:36:36.075Z,25.01
2018-11-11T04:37:36.013Z,25.00
2018-11-11T04:38:36.093Z,25.00
2018-11-11T04:39:36.186Z,24.94
2018-11-11T04:40:35.938Z,24.93
2018-11-11T04:41:35.901Z,24.89
2018-11-11T04:42:35.873Z,24.97
2018-11-11T04:43:36.063Z,24.93
2018-11-11T04:44:35.865Z,24.92
2018-11-11T04:45:35.789Z,24.89
2018-11-11T04:46:35.850Z,24.93
2018-11-11T04:47:35.726Z,24.93
2018-11-11T04:48:35.841Z,25.00
2018-11-11T04:49:35.699Z,24.94
2018-11-11T04:50:35.649Z,24.97
2018-11-11T04:51:35.645Z,24.96
2018-11-11T04:52:35.597Z,24.94
2018-11-11T04:53:35.685Z,24.93
2018-11-11T04:54:35.540Z,24.93
2018-11-11T04:55:35.519Z,24.89
2018-11-11T04:56:35.504Z,24.94
2018-11-11T04:57:35.507Z,24.92
2018-11-11T04:58:35.470Z,24.94
2018-11-11T04:59:35.506Z,24.96
2018-11-11T05:00:35.378Z,24.90
2018-11-11T05:01:35.472Z,24.93
2018-11-11T05:02:35.329Z,24.80
2018-11-11T05:03:35.348Z,24.80
2018-11-11T05:04:35.301Z,24.78
2018-11-11T05:05:35.330Z,24.82
2018-11-11T05:06:35.260Z,24.83
2018-11-11T05:07:35.199Z,24.85
2018-11-11T05:08:35.150Z,24.78
2018-11-11T05:09:35.230Z,24.78
2018-11-11T05:10:35.191Z,24.77
2018-11-11T05:11:35.084Z,24.77
2018-11-11T05:12:35.044Z,24.82
2018-11-11T05:13:35.038Z,24.80
2018-11-11T05:14:35.027Z,24.78
2018-11-11T05:15:35.022Z,24.71
2018-11-11T05:16:34.999Z,24.71
2018-11-11T05:17:34.937Z,24.75
2018-11-11T05:18:34.887Z,24.78
2018-11-11T05:19:34.924Z,24.71
2018-11-11T05:20:34.975Z,24.71
2018-11-11T05:21:34.808Z,24.71
2018-11-11T05:22:34.795Z,24.74
2018-11-11T05:23:34.787Z,24.61
2018-11-11T05:24:34.725Z,24.63
2018-11-11T05:25:34.787Z,24.64
2018-11-11T05:26:34.668Z,24.70
2018-11-11T05:27:34.637Z,24.77
2018-11-11T05:28:34.654Z,24.67
2018-11-11T05:29:34.592Z,24.61
2018-11-11T05:30:34.617Z,24.69
2018-11-11T05:31:34.647Z,24.66
2018-11-11T05:32:34.575Z,24.63
2018-11-11T05:33:34.462Z,24.66
2018-11-11T05:34:34.548Z,24.59
2018-11-11T05:35:34.487Z,24.66
2018-11-11T05:36:34.406Z,24.66
2018-11-11T05:37:34.508Z,24.69
2018-11-11T05:38:34.424Z,24.58
2018-11-11T05:39:34.340Z,24.67
2018-11-11T05:40:34.295Z,24.64
2018-11-11T05:41:34.270Z,24.58
2018-11-11T05:42:34.273Z,24.56
2018-11-11T05:43:34.309Z,24.67
2018-11-11T05:44:34.160Z,24.66
2018-11-11T05:45:34.169Z,24.61
2018-11-11T05:46:34.189Z,24.56
2018-11-11T05:47:34.190Z,24.54
2018-11-11T05:48:34.112Z,24.55
2018-11-11T05:49:34.043Z,24.51
2018-11-11T05:50:34.088Z,24.52
2018-11-11T05:51:33.998Z,24.44
2018-11-11T05:52:33.961Z,24.44
2018-11-11T05:53:34.031Z,24.49
2018-11-11T05:54:33.905Z,24.42
2018-11-11T05:55:33.938Z,24.45
2018-11-11T05:56:33.853Z,24.42
2018-11-11T05:57:33.804Z,24.48
2018-11-11T05:58:33.900Z,24.54
2018-11-11T05:59:33.770Z,24.45
2018-11-11T06:00:33.707Z,24.49
2018-11-11T06:01:33.739Z,24.49
2018-11-11T06:02:33.699Z,24.48
2018-11-11T06:03:33.647Z,24.49
2018-11-11T06:04:33.728Z,24.56
2018-11-11T06:05:33.595Z,24.54
2018-11-11T06:06:33.575Z,24.46
2018-11-11T06:07:33.540Z,24.45
2018-11-11T06:08:33.583Z,24.49
2018-11-11T06:09:33.546Z,24.54
2018-11-11T06:10:33.588Z,24.51
2018-11-11T06:11:33.449Z,24.49
2018-11-11T06:12:33.410Z,24.54
2018-11-11T06:13:33.381Z,24.48
2018-11-11T06:14:33.466Z,24.44
2018-11-11T06:15:33.350Z,24.51
2018-11-11T06:16:33.395Z,24.58
2018-11-11T06:17:33.293Z,24.46
2018-11-11T06:18:33.245Z,24.55
2018-11-11T06:19:33.212Z,24.55
2018-11-11T06:20:33.179Z,24.51
2018-11-11T06:21:33.294Z,24.51
2018-11-11T06:22:33.139Z,24.48
2018-11-11T06:23:33.100Z,24.51
2018-11-11T06:24:33.093Z,24.55
2018-11-11T06:25:33.082Z,24.52
2018-11-11T06:26:33.130Z,24.54
2018-11-11T06:27:33.133Z,24.49
2018-11-11T06:28:32.990Z,24.55
2018-11-11T06:29:32.987Z,24.54
2018-11-11T06:30:32.942Z,24.52
2018-11-11T06:31:32.991Z,24.48
2018-11-11T06:32:32.866Z,24.51
2018-11-11T06:33:32.832Z,24.54
2018-11-11T06:34:32.821Z,24.42
2018-11-11T06:35:32.793Z,24.55
2018-11-11T06:36:32.854Z,24.46
2018-11-11T06:37:32.722Z,24.44
2018-11-11T06:38:32.686Z,24.45
2018-11-11T06:39:32.657Z,24.42
2018-11-11T06:40:32.644Z,24.51
2018-11-11T06:41:32.621Z,24.44
2018-11-11T06:42:32.677Z,24.37
2018-11-11T06:43:32.570Z,24.39
2018-11-11T06:44:32.534Z,24.42
2018-11-11T06:45:32.498Z,24.40
2018-11-11T06:46:32.476Z,24.40
2018-11-11T06:47:32.449Z,24.44
2018-11-11T06:48:32.532Z,24.51
2018-11-11T06:49:32.447Z,24.42
2018-11-11T06:50:32.382Z,24.49
2018-11-11T06:51:32.347Z,24.48
2018-11-11T06:52:32.324Z,24.39
2018-11-11T06:53:32.274Z,24.40
2018-11-11T06:54:32.361Z,24.37
2018-11-11T06:55:32.232Z,24.40
2018-11-11T06:56:32.211Z,24.42
2018-11-11T06:57:32.189Z,24.44
2018-11-11T06:58:32.149Z,24.45
2018-11-11T06:59:32.219Z,24.40
2018-11-11T07:00:32.092Z,24.42
2018-11-11T07:01:32.086Z,24.44
2018-11-11T07:02:32.033Z,24.40
2018-11-11T07:03:32.003Z,24.37
2018-11-11T07:04:32.119Z,24.39
2018-11-11T07:05:31.950Z,24.42
2018-11-11T07:06:31.924Z,24.39
2018-11-11T07:07:31.959Z,24.45
2018-11-11T07:08:31.877Z,24.44
2018-11-11T07:09:31.935Z,24.46
2018-11-11T07:10:31.812Z,24.40
2018-11-11T07:11:31.776Z,24.48
2018-11-11T07:12:31.838Z,24.46
2018-11-11T07:13:31.735Z,24.42
2018-11-11T07:14:31.815Z,24.37
2018-11-11T07:15:31.812Z,24.39
2018-11-11T07:16:31.656Z,24.44
2018-11-11T07:17:31.632Z,24.34
2018-11-11T07:18:31.604Z,24.36
2018-11-11T07:19:31.588Z,24.36
2018-11-11T07:20:31.625Z,24.34
2018-11-11T07:21:31.498Z,24.34
2018-11-11T07:22:31.488Z,24.21
2018-11-11T07:23:31.528Z,24.39
2018-11-11T07:24:31.419Z,24.44
2018-11-11T07:25:31.387Z,24.42
2018-11-11T07:26:31.476Z,24.44
2018-11-11T07:27:31.340Z,24.55
2018-11-11T07:28:31.346Z,24.48
2018-11-11T07:29:31.326Z,24.52
2018-11-11T07:30:31.257Z,24.51
2018-11-11T07:31:31.412Z,24.46
2018-11-11T07:32:31.301Z,24.44
2018-11-11T07:33:31.199Z,24.42
2018-11-11T07:34:31.194Z,24.40
2018-11-11T07:35:31.137Z,24.40
2018-11-11T07:36:31.098Z,24.37
2018-11-11T07:37:31.179Z,24.37
2018-11-11T07:38:31.048Z,24.39
2018-11-11T07:39:31.032Z,24.39
2018-11-11T07:40:30.983Z,24.39
2018-11-11T07:41:31.019Z,24.46
2018-11-11T07:42:31.130Z,24.59
2018-11-11T07:43:30.906Z,24.58
2018-11-11T07:44:30.895Z,24.48
2018-11-11T07:45:30.843Z,24.51
2018-11-11T07:46:30.834Z,24.46
2018-11-11T07:47:30.891Z,24.46
2018-11-11T07:48:30.865Z,24.49
2018-11-11T07:49:30.740Z,24.45
2018-11-11T07:50:30.713Z,24.49
2018-11-11T07:51:30.691Z,24.48
2018-11-11T07:52:30.673Z,24.44
2018-11-11T07:53:30.758Z,24.39
2018-11-11T07:54:30.598Z,24.34
2018-11-11T07:55:30.573Z,24.34
2018-11-11T07:56:30.559Z,24.37
2018-11-11T07:57:30.528Z,24.36
2018-11-11T07:58:30.688Z,24.34
2018-11-11T07:59:30.464Z,24.34
2018-11-11T08:00:30.440Z,24.19
2018-11-11T08:01:30.620Z,24.21
2018-11-11T08:02:30.368Z,24.27
2018-11-11T08:03:30.398Z,24.24
2018-11-11T08:04:30.435Z,24.24
2018-11-11T08:05:30.298Z,24.18
2018-11-11T08:06:30.385Z,24.22
2018-11-11T08:07:30.230Z,24.36
2018-11-11T08:08:30.232Z,24.34
2018-11-11T08:09:30.287Z,24.34
2018-11-11T08:10:30.158Z,24.32
2018-11-11T08:11:30.136Z,24.27
2018-11-11T08:12:30.107Z,24.21
2018-11-11T08:13:30.067Z,24.21
2018-11-11T08:14:30.147Z,24.24
2018-11-11T08:15:30.009Z,24.22
2018-11-11T08:16:30.041Z,24.21
2018-11-11T08:17:29.979Z,24.15
2018-11-11T08:18:29.941Z,24.18
2018-11-11T08:19:29.959Z,24.11
2018-11-11T08:20:30.029Z,24.09
2018-11-11T08:21:29.859Z,24.15
2018-11-11T08:22:29.813Z,24.12
2018-11-11T08:23:29.816Z,24.04
2018-11-11T08:24:29.761Z,24.08
2018-11-11T08:25:29.950Z,24.15
2018-11-11T08:26:29.722Z,24.17
2018-11-11T08:27:29.675Z,24.12
2018-11-11T08:28:29.662Z,24.12
2018-11-11T08:29:29.665Z,24.14
2018-11-11T08:30:29.718Z,24.07
2018-11-11T08:31:29.592Z,24.09
2018-11-11T08:32:29.632Z,24.08
2018-11-11T08:33:29.546Z,24.04
2018-11-11T08:34:29.483Z,24.07
2018-11-11T08:35:29.464Z,24.07
2018-11-11T08:36:29.544Z,24.08
2018-11-11T08:37:29.402Z,24.04
2018-11-11T08:38:29.400Z,24.04
2018-11-11T08:39:29.348Z,24.11
2018-11-11T08:40:29.416Z,24.07
2018-11-11T08:41:29.321Z,24.12
2018-11-11T08:42:29.355Z,24.04
2018-11-11T08:43:29.242Z,24.09
2018-11-11T08:44:29.214Z,24.09
2018-11-11T08:45:29.179Z,24.08
2018-11-11T08:46:29.153Z,24.09
2018-11-11T08:47:29.273Z,24.08
2018-11-11T08:48:29.106Z,24.15
2018-11-11T08:49:29.066Z,24.07
2018-11-11T08:50:29.049Z,24.14
2018-11-11T08:51:29.027Z,24.08
2018-11-11T08:52:29.030Z,24.04
2018-11-11T08:53:29.077Z,24.07
2018-11-11T08:54:28.937Z,24.07
2018-11-11T08:55:28.929Z,24.04
2018-11-11T08:56:28.886Z,24.04
2018-11-11T08:57:28.842Z,24.04
2018-11-11T08:58:28.944Z,24.00
2018-11-11T08:59:28.810Z,24.02
2018-11-11T09:00:28.786Z,23.96
2018-11-11T09:01:28.849Z,23.93
2018-11-11T09:02:28.725Z,23.90
2018-11-11T09:03:28.790Z,23.93
2018-11-11T09:04:28.697Z,23.99
2018-11-11T09:05:28.631Z,23.92
2018-11-11T09:06:28.609Z,23.92
2018-11-11T09:07:28.580Z,23.89
2018-11-11T09:08:28.651Z,23.87
2018-11-11T09:09:28.521Z,23.81
2018-11-11T09:10:28.527Z,23.82
2018-11-11T09:11:28.532Z,23.89
2018-11-11T09:12:28.452Z,23.84
2018-11-11T09:13:28.413Z,23.79
2018-11-11T09:14:28.482Z,23.79
2018-11-11T09:15:28.343Z,23.84
2018-11-11T09:16:28.330Z,23.82
2018-11-11T09:17:28.314Z,23.77
2018-11-11T09:18:28.276Z,23.70
2018-11-11T09:19:28.347Z,23.78
2018-11-11T09:20:28.223Z,23.75
2018-11-11T09:21:28.198Z,23.77
2018-11-11T09:22:28.174Z,23.72
2018-11-11T09:23:28.155Z,23.75
2018-11-11T09:24:28.106Z,23.72
2018-11-11T09:25:28.184Z,23.75
2018-11-11T09:26:28.071Z,23.74
2018-11-11T09:27:28.006Z,23.64
2018-11-11T09:28:27.978Z,23.72
2018-11-11T09:29:27.974Z,23.67
2018-11-11T09:30:28.167Z,23.72
2018-11-11T09:31:27.977Z,23.63
2018-11-11T09:32:27.903Z,23.64
2018-11-11T09:33:27.855Z,23.63
2018-11-11T09:34:27.917Z,23.56
2018-11-11T09:35:27.959Z,23.56
2018-11-11T09:36:27.761Z,23.53
2018-11-11T09:37:27.764Z,23.52
2018-11-11T09:38:27.718Z,23.66
2018-11-11T09:39:27.681Z,23.52
2018-11-11T09:40:27.759Z,23.52
2018-11-11T09:41:27.631Z,23.52
2018-11-11T09:42:27.662Z,23.53
2018-11-11T09:43:27.858Z,23.56
2018-11-11T09:44:27.566Z,23.48
2018-11-11T09:45:27.521Z,23.57
2018-11-11T09:46:27.583Z,23.55
2018-11-11T09:47:27.509Z,23.52
2018-11-11T09:48:27.460Z,23.57
2018-11-11T09:49:27.394Z,23.53
2018-11-11T09:50:27.381Z,23.57
2018-11-11T09:51:27.351Z,23.56
2018-11-11T09:52:27.433Z,23.59
2018-11-11T09:53:27.292Z,23.59
2018-11-11T09:54:27.261Z,23.56
2018-11-11T09:55:27.249Z,23.56
2018-11-11T09:56:27.201Z,23.44
2018-11-11T09:57:27.177Z,23.57
2018-11-11T09:58:27.276Z,23.57
2018-11-11T09:59:27.174Z,23.57
2018-11-11T10:00:27.121Z,23.50
2018-11-11T10:01:27.084Z,23.57
2018-11-11T10:02:27.045Z,23.59
2018-11-11T10:03:27.131Z,23.55
2018-11-11T10:04:26.997Z,23.56
2018-11-11T10:05:26.968Z,23.47
2018-11-11T10:06:26.960Z,23.50
2018-11-11T10:07:26.984Z,23.41
2018-11-11T10:08:26.986Z,23.47
2018-11-11T10:09:26.844Z,23.40
2018-11-11T10:10:26.834Z,23.48
2018-11-11T10:11:26.789Z,23.42
2018-11-11T10:12:26.846Z,23.42
2018-11-11T10:13:26.834Z,23.42
2018-11-11T10:14:26.746Z,23.32
2018-11-11T10:15:26.672Z,23.41
2018-11-11T10:16:26.644Z,23.34
2018-11-11T10:17:26.645Z,23.35
2018-11-11T10:18:26.698Z,23.34
2018-11-11T10:19:26.579Z,23.28
2018-11-11T10:20:26.755Z,23.28
2018-11-11T10:21:26.527Z,23.37
2018-11-11T10:22:26.497Z,23.41
2018-11-11T10:23:26.459Z,23.32
2018-11-11T10:24:26.550Z,23.35
2018-11-11T10:25:26.401Z,23.38
2018-11-11T10:26:26.364Z,23.40
2018-11-11T10:27:26.430Z,23.29
2018-11-11T10:28:26.322Z,23.35
2018-11-11T10:29:26.498Z,23.44
2018-11-11T10:30:26.355Z,23.45
2018-11-11T10:31:26.319Z,23.45
2018-11-11T10:32:26.197Z,23.50
2018-11-11T10:33:26.174Z,23.45
2018-11-11T10:34:26.163Z,23.47
2018-11-11T10:35:26.137Z,23.44
2018-11-11T10:36:26.189Z,23.47
2018-11-11T10:37:26.111Z,23.47
2018-11-11T10:38:26.051Z,23.55
2018-11-11T10:39:26.007Z,23.57
2018-11-11T10:40:25.991Z,23.52
2018-11-11T10:41:26.057Z,23.60
2018-11-11T10:42:25.934Z,23.59
2018-11-11T10:43:25.890Z,23.60
2018-11-11T10:44:25.960Z,23.62
2018-11-11T10:45:25.845Z,23.62
2018-11-11T10:46:25.931Z,23.62
2018-11-11T10:47:25.812Z,23.57
2018-11-11T10:48:25.782Z,23.56
2018-11-11T10:49:25.726Z,23.59
2018-11-11T10:50:25.764Z,23.62
2018-11-11T10:51:25.787Z,23.59
2018-11-11T10:52:25.647Z,23.60
2018-11-11T10:53:25.612Z,23.59
2018-11-11T10:54:25.632Z,23.62
2018-11-11T10:55:25.551Z,23.55
2018-11-11T10:56:25.638Z,23.57
2018-11-11T10:57:25.498Z,23.67
2018-11-11T10:58:25.488Z,23.62
2018-11-11T10:59:25.459Z,23.57
2018-11-11T11:00:25.455Z,23.63
2018-11-11T11:01:25.382Z,23.56
2018-11-11T11:02:25.470Z,23.62
2018-11-11T11:03:25.349Z,23.66
2018-11-11T11:04:25.303Z,23.59
2018-11-11T11:05:25.290Z,23.57
2018-11-11T11:06:25.245Z,23.64
2018-11-11T11:07:25.232Z,23.63
2018-11-11T11:08:25.304Z,23.64
2018-11-11T11:09:25.207Z,23.62
2018-11-11T11:10:25.158Z,23.56
2018-11-11T11:11:25.138Z,23.50
2018-11-11T11:12:25.078Z,23.59
2018-11-11T11:13:25.266Z,23.63
2018-11-11T11:14:25.028Z,23.63
2018-11-11T11:15:25.047Z,23.59
2018-11-11T11:16:25.063Z,23.63
2018-11-11T11:17:24.947Z,23.56
2018-11-11T11:18:25.040Z,23.52
2018-11-11T11:19:24.894Z,23.50
2018-11-11T11:20:24.874Z,23.56
2018-11-11T11:21:24.838Z,23.50
2018-11-11T11:22:24.798Z,23.50
2018-11-11T11:23:24.885Z,23.57
2018-11-11T11:24:24.740Z,23.57
2018-11-11T11:25:24.750Z,23.53
2018-11-11T11:26:24.702Z,23.57
2018-11-11T11:27:24.760Z,23.55
2018-11-11T11:28:24.733Z,23.59
2018-11-11T11:29:24.599Z,23.59
2018-11-11T11:30:24.577Z,23.55
2018-11-11T11:31:24.665Z,23.55
2018-11-11T11:32:24.526Z,23.47
2018-11-11T11:33:24.491Z,23.48
2018-11-11T11:34:24.627Z,23.48
2018-11-11T11:35:24.462Z,23.57
2018-11-11T11:36:24.419Z,23.60
2018-11-11T11:37:24.388Z,23.48
2018-11-11T11:38:24.572Z,23.52
2018-11-11T11:39:24.324Z,23.50
2018-11-11T11:40:24.417Z,23.52
2018-11-11T11:41:24.362Z,23.57
2018-11-11T11:42:24.242Z,23.44
2018-11-11T11:43:24.221Z,23.56
2018-11-11T11:44:24.206Z,23.52
2018-11-11T11:45:24.254Z,23.57
2018-11-11T11:46:24.130Z,23.56
2018-11-11T11:47:24.175Z,23.53
2018-11-11T11:48:24.064Z,23.57
2018-11-11T11:49:24.042Z,23.63
2018-11-11T11:50:24.161Z,23.62
2018-11-11T11:51:24.019Z,23.59
2018-11-11T11:52:24.078Z,23.62
2018-11-11T11:53:23.926Z,23.53
2018-11-11T11:54:23.907Z,23.53
2018-11-11T11:55:23.986Z,23.55
2018-11-11T11:56:23.855Z,23.62
2018-11-11T11:57:23.817Z,23.63
2018-11-11T11:58:23.826Z,23.59
2018-11-11T11:59:23.785Z,23.60
2018-11-11T12:00:23.828Z,23.56
2018-11-11T12:01:23.716Z,23.60
2018-11-11T12:02:23.734Z,23.57
2018-11-11T12:03:23.656Z,23.63
2018-11-11T12:04:23.646Z,23.56
2018-11-11T12:05:23.722Z,23.70
2018-11-11T12:06:23.578Z,23.72
2018-11-11T12:07:23.543Z,23.77
2018-11-11T12:08:23.553Z,23.84
2018-11-11T12:09:23.508Z,23.81
2018-11-11T12:10:23.460Z,23.85
2018-11-11T12:11:23.518Z,23.77
2018-11-11T12:12:23.401Z,23.96
2018-11-11T12:13:23.378Z,24.00
2018-11-11T12:14:23.364Z,23.97
2018-11-11T12:15:23.326Z,24.08
2018-11-11T12:16:23.339Z,24.11
2018-11-11T12:17:23.363Z,24.09
2018-11-11T12:18:23.255Z,24.24
2018-11-11T12:19:23.204Z,24.26
2018-11-11T12:20:23.182Z,24.24
2018-11-11T12:21:23.219Z,24.27
2018-11-11T12:22:23.231Z,24.36
2018-11-11T12:23:23.205Z,24.40
2018-11-11T12:24:23.081Z,24.40
2018-11-11T12:25:23.095Z,24.40
2018-11-11T12:26:23.007Z,24.40
2018-11-11T12:27:23.101Z,24.51
2018-11-11T12:28:23.001Z,24.51
2018-11-11T12:29:22.940Z,24.45
2018-11-11T12:30:22.969Z,24.49
2018-11-11T12:31:22.889Z,24.64
2018-11-11T12:32:22.954Z,24.69
2018-11-11T12:33:22.826Z,24.71
2018-11-11T12:34:22.800Z,24.80
2018-11-11T12:35:22.761Z,24.82
2018-11-11T12:36:22.733Z,24.78
2018-11-11T12:37:22.800Z,24.85
2018-11-11T12:38:22.694Z,24.74
2018-11-11T12:39:22.695Z,24.87
2018-11-11T12:40:22.720Z,24.94
2018-11-11T12:41:22.594Z,24.96
2018-11-11T12:42:22.756Z,24.92
2018-11-11T12:43:22.577Z,25.05
2018-11-11T12:44:22.498Z,25.09
2018-11-11T12:45:22.486Z,25.09
2018-11-11T12:46:22.457Z,25.12
2018-11-11T12:47:22.428Z,25.05
2018-11-11T12:48:22.554Z,25.05
2018-11-11T12:49:22.364Z,25.05
2018-11-11T12:50:22.427Z,25.08
2018-11-11T12:51:22.337Z,25.14
2018-11-11T12:52:22.303Z,25.24